KCHD/CHD METAR and TAF weather

Enter ICAO airport designator
Station Type Date Time Source
KCHD METAR 2022/01/18 03:47 UTC NOAA

KCHD 180347Z 00000KT 10SM FEW200 15/01 A3002 RMK LAST


Station Type Date Time Source
KCHD Decoded METAR 2022/01/18 03:47 UTC NOAA

Chandler, Chandler Municipal Airport, AZ, United States (KCHD) 33-16-09N 111-48-40W
Jan 17, 2022 - 10:47 PM EST / 2022.01.18 0347 UTC
Wind: Calm:0
Visibility: 10 mile(s):0
Sky conditions: mostly clear
Temperature: 59 F (15 C)
Dew Point: 33 F (1 C)
Relative Humidity: 38%
Pressure (altimeter): 30.02 in. Hg (1016 hPa)
ob: KCHD 180347Z 00000KT 10SM FEW200 15/01 A3002 RMK LAST
cycle: 4

Station Type Date Time Source
KCHD TAF UTC NOAA

Error!

Example: see airport list